Time;durP1;ratioP1;P1;durP2;ratioP2;P2;SDS_P1;SDS_P2;PMS_P1;PMS_P2;Temp;Humidity;BMP_temperature;BMP_pressure;BME280_temperature;BME280_humidity;BME280_pressure;Samples;Min_cycle;Max_cycle;Signal;HPM_P1;HPM_P2
2021/03/19 00:00:11;;;;;;;18.95;17.10;;;30.10;91.80;;;;;;5066428;28;20256;-53
2021/03/19 00:02:42;;;;;;;18.80;17.10;;;30.20;91.90;;;;;;5065629;28;20804;-48
2021/03/19 00:05:14;;;;;;;17.95;16.05;;;30.20;92.00;;;;;;5064053;28;20247;-48
2021/03/19 00:07:45;;;;;;;17.33;15.88;;;30.20;92.00;;;;;;5051190;28;20292;-53
2021/03/19 00:10:18;;;;;;;17.80;16.10;;;30.20;92.10;;;;;;5057503;28;20247;-48
2021/03/19 00:12:50;;;;;;;18.05;16.35;;;30.20;92.10;;;;;;5066378;28;20193;-54
2021/03/19 00:15:21;;;;;;;18.75;16.88;;;30.20;92.10;;;;;;5051483;28;20205;-52
2021/03/19 00:17:58;;;;;;;19.00;17.10;;;30.20;92.10;;;;;;5065126;28;20197;-52
2021/03/19 00:20:32;;;;;;;17.88;16.25;;;30.30;92.20;;;;;;5058747;28;20207;-51
2021/03/19 00:23:02;;;;;;;18.45;16.70;;;30.30;92.20;;;;;;5066214;28;20687;-50
2021/03/19 00:25:35;;;;;;;18.83;17.20;;;30.30;92.20;;;;;;5064898;28;20279;-53
2021/03/19 00:28:05;;;;;;;18.02;16.25;;;30.40;92.30;;;;;;5064144;28;20561;-54
2021/03/19 00:30:37;;;;;;;18.40;16.50;;;30.40;92.30;;;;;;5064606;28;20208;-49
2021/03/19 00:33:08;;;;;;;18.85;17.20;;;30.40;92.30;;;;;;5066136;28;20207;-49
2021/03/19 00:35:39;;;;;;;19.83;17.92;;;30.50;92.30;;;;;;5064855;28;20281;-53
2021/03/19 00:38:09;;;;;;;20.35;18.45;;;30.50;92.30;;;;;;5064026;28;20217;-51
2021/03/19 00:40:41;;;;;;;21.08;18.98;;;30.50;92.20;;;;;;5063338;28;20194;-49
2021/03/19 00:43:11;;;;;;;20.70;18.70;;;30.60;92.30;;;;;;5065712;28;20272;-54
2021/03/19 00:45:42;;;;;;;20.38;18.30;;;30.60;92.30;;;;;;5055153;28;20194;-49
2021/03/19 00:48:12;;;;;;;19.83;17.83;;;30.70;92.30;;;;;;5050842;28;20198;-48
2021/03/19 00:50:52;;;;;;;20.92;18.90;;;30.70;92.20;;;;;;5062622;28;20233;-49
2021/03/19 00:53:23;;;;;;;19.23;17.33;;;30.80;92.20;;;;;;5065778;28;20259;-48
2021/03/19 00:55:55;;;;;;;19.38;17.67;;;30.80;92.20;;;;;;5065514;28;20842;-50
2021/03/19 00:58:26;;;;;;;20.60;18.75;;;30.80;92.20;;;;;;5064282;28;20263;-51
2021/03/19 01:00:56;;;;;;;18.95;17.17;;;30.90;92.00;;;;;;5064250;28;20233;-49
2021/03/19 01:03:27;;;;;;;19.58;17.95;;;30.90;91.80;;;;;;5060662;28;20216;-50
2021/03/19 01:05:57;;;;;;;18.38;16.67;;;31.00;91.80;;;;;;5050138;28;20582;-50
2021/03/19 01:08:27;;;;;;;19.75;17.88;;;31.00;91.80;;;;;;5056720;28;20291;-50
2021/03/19 01:10:59;;;;;;;19.55;17.80;;;31.10;91.80;;;;;;5054719;28;20613;-49
2021/03/19 01:13:30;;;;;;;21.73;19.58;;;31.10;91.70;;;;;;5064948;28;20578;-51
2021/03/19 01:16:00;;;;;;;21.90;20.00;;;31.20;91.40;;;;;;5063648;28;20251;-50
2021/03/19 01:18:32;;;;;;;21.60;19.50;;;31.10;91.20;;;;;;5063664;28;20528;-51
2021/03/19 01:21:16;;;;;;;20.33;18.50;;;31.20;91.10;;;;;;5063529;28;20669;-50
2021/03/19 01:23:46;;;;;;;19.95;17.95;;;31.30;91.00;;;;;;5063182;28;20205;-48
2021/03/19 01:26:17;;;;;;;19.60;17.92;;;31.30;90.90;;;;;;5059924;28;20197;-49
2021/03/19 01:28:49;;;;;;;21.25;19.23;;;31.40;90.90;;;;;;5060393;28;20193;-52
2021/03/19 01:31:25;;;;;;;24.83;22.42;;;31.40;90.70;;;;;;5059634;28;20708;-50
2021/03/19 01:33:56;;;;;;;19.60;17.52;;;31.40;90.20;;;;;;5056205;28;20604;-49
2021/03/19 01:36:27;;;;;;;20.50;18.70;;;31.50;90.50;;;;;;5058064;28;20205;-49
2021/03/19 01:38:58;;;;;;;20.13;18.13;;;31.50;90.50;;;;;;5049832;28;20202;-51
2021/03/19 01:41:30;;;;;;;21.40;19.40;;;31.60;90.70;;;;;;5060523;28;20192;-49
2021/03/19 01:44:00;;;;;;;20.13;18.23;;;31.70;90.50;;;;;;5063944;28;20194;-49
2021/03/19 01:47:07;;;;;;;18.80;17.15;;;31.70;90.50;;;;;;5061978;28;20196;-52
2021/03/19 01:50:14;;;;;;;20.90;18.85;;;31.80;90.30;;;;;;5051266;28;20224;-50
2021/03/19 01:53:22;;;;;;;19.90;17.90;;;31.90;89.60;;;;;;5057367;28;20229;-48
2021/03/19 01:56:29;;;;;;;20.52;18.67;;;32.00;88.10;;;;;;5063826;28;20201;-49
2021/03/19 01:59:35;;;;;;;22.08;19.90;;;32.10;88.90;;;;;;5064494;28;20592;-53
2021/03/19 02:02:42;;;;;;;21.38;19.25;;;32.10;87.30;;;;;;5060091;28;20861;-49
2021/03/19 02:05:50;;;;;;;20.00;18.20;;;32.30;87.00;;;;;;5059534;28;20293;-49
2021/03/19 02:08:57;;;;;;;19.35;17.65;;;32.30;87.00;;;;;;5063180;28;20664;-50
2021/03/19 02:12:03;;;;;;;20.30;18.40;;;32.40;87.30;;;;;;5064640;28;20602;-50
2021/03/19 02:15:09;;;;;;;19.85;18.08;;;32.50;86.50;;;;;;5063048;28;20205;-52
2021/03/19 02:18:15;;;;;;;20.50;18.63;;;32.60;86.70;;;;;;5064822;28;20275;-54
2021/03/19 02:21:23;;;;;;;26.35;23.75;;;32.70;82.40;;;;;;5063257;28;20206;-47
2021/03/19 02:24:33;;;;;;;24.42;21.80;;;32.70;80.90;;;;;;5061187;28;20201;-48
2021/03/19 02:27:40;;;;;;;21.27;19.27;;;32.70;81.80;;;;;;5063636;28;20209;-51
2021/03/19 02:30:47;;;;;;;20.55;18.70;;;32.70;82.50;;;;;;5061706;28;20209;-51
2021/03/19 02:33:19;;;;;;;20.13;18.30;;;32.80;82.30;;;;;;5062926;28;20271;-50
2021/03/19 02:35:54;;;;;;;22.67;20.67;;;32.80;83.30;;;;;;5061872;28;20194;-51
2021/03/19 02:38:24;;;;;;;21.88;19.77;;;32.80;81.90;;;;;;5063437;28;20223;-49
2021/03/19 02:40:55;;;;;;;21.73;19.70;;;32.90;82.60;;;;;;5061924;28;20249;-50
2021/03/19 02:43:25;;;;;;;22.80;20.60;;;32.90;82.60;;;;;;5061847;28;20210;-53
2021/03/19 02:45:56;;;;;;;24.25;21.92;;;33.00;82.40;;;;;;5062828;28;20201;-52
2021/03/19 02:48:28;;;;;;;21.52;19.42;;;33.00;80.40;;;;;;5064730;28;20225;-50
2021/03/19 02:50:58;;;;;;;23.73;21.52;;;33.00;81.20;;;;;;5062827;28;20271;-52
2021/03/19 02:53:30;;;;;;;23.45;21.30;;;33.10;80.60;;;;;;5064648;28;20190;-49
2021/03/19 02:56:03;;;;;;;24.20;21.90;;;33.20;80.30;;;;;;5066219;28;20272;-48
2021/03/19 02:58:33;;;;;;;21.00;18.88;;;33.20;79.70;;;;;;5065791;28;20279;-51
2021/03/19 03:01:04;;;;;;;24.35;22.15;;;33.20;80.00;;;;;;5065970;28;20313;-48
2021/03/19 03:03:36;;;;;;;23.05;20.90;;;33.30;79.80;;;;;;5066203;28;20574;-48
2021/03/19 03:06:07;;;;;;;25.75;23.25;;;33.30;79.70;;;;;;5066012;28;20198;-49
2021/03/19 03:08:38;;;;;;;24.67;22.23;;;33.40;78.40;;;;;;5065733;28;20212;-49
2021/03/19 03:11:08;;;;;;;22.92;20.92;;;33.40;78.00;;;;;;5067138;28;20217;-49
2021/03/19 03:13:39;;;;;;;23.15;21.00;;;33.50;78.20;;;;;;5059703;28;20642;-49
2021/03/19 03:16:10;;;;;;;22.60;20.50;;;33.50;78.10;;;;;;5064318;28;20660;-48
2021/03/19 03:18:42;;;;;;;24.35;22.15;;;33.60;78.50;;;;;;5066657;28;20656;-49
2021/03/19 03:21:12;;;;;;;22.80;20.90;;;33.60;76.90;;;;;;5066667;28;20628;-48
2021/03/19 03:23:43;;;;;;;23.17;21.02;;;33.70;77.60;;;;;;5063569;28;20649;-48
2021/03/19 03:26:14;;;;;;;22.75;20.55;;;33.80;77.60;;;;;;5064453;28;20279;-48
2021/03/19 03:28:44;;;;;;;21.75;19.65;;;33.80;77.40;;;;;;5062264;28;20212;-49
2021/03/19 03:31:16;;;;;;;22.95;20.95;;;33.90;77.40;;;;;;5062921;28;20231;-51
2021/03/19 03:33:49;;;;;;;24.33;20.95;;;33.90;77.30;;;;;;5063890;28;20254;-52
2021/03/19 03:36:19;;;;;;;23.48;21.27;;;33.90;77.50;;;;;;5063418;28;20185;-48
2021/03/19 03:38:50;;;;;;;22.92;20.83;;;34.00;76.90;;;;;;5064311;28;20200;-48
2021/03/19 03:41:25;;;;;;;21.13;19.25;;;34.00;76.90;;;;;;5056018;28;20195;-50
2021/03/19 03:43:56;;;;;;;22.90;20.73;;;34.00;76.90;;;;;;5051905;28;20272;-49
2021/03/19 03:46:27;;;;;;;21.33;19.42;;;34.10;76.50;;;;;;5052482;28;20214;-50
2021/03/19 03:48:59;;;;;;;23.67;21.52;;;34.10;76.70;;;;;;5053596;28;20226;-51
2021/03/19 03:51:29;;;;;;;23.35;20.92;;;34.10;76.10;;;;;;5066998;28;20225;-48
2021/03/19 03:53:59;;;;;;;22.83;20.73;;;34.10;75.90;;;;;;5065304;28;20185;-50
2021/03/19 03:56:30;;;;;;;21.27;19.45;;;34.10;75.60;;;;;;5065132;28;20280;-51
2021/03/19 03:59:02;;;;;;;22.60;20.33;;;34.00;76.50;;;;;;5060783;28;20202;-50
2021/03/19 04:01:32;;;;;;;23.65;21.35;;;34.00;75.60;;;;;;5064415;28;20809;-51
2021/03/19 04:04:04;;;;;;;22.02;19.92;;;34.00;75.60;;;;;;5060849;28;20577;-49
2021/03/19 04:06:34;;;;;;;21.77;19.83;;;34.00;76.20;;;;;;5063805;28;20229;-48
2021/03/19 04:09:05;;;;;;;24.42;22.08;;;34.10;76.40;;;;;;5064709;28;20205;-51
2021/03/19 04:11:36;;;;;;;23.20;21.00;;;34.10;75.70;;;;;;5065946;28;20229;-50
2021/03/19 04:14:06;;;;;;;21.45;19.58;;;34.10;75.90;;;;;;5066438;28;20202;-48
2021/03/19 04:16:36;;;;;;;23.75;21.55;;;34.20;75.60;;;;;;5059391;28;20198;-51
2021/03/19 04:19:08;;;;;;;23.48;21.17;;;34.20;76.10;;;;;;5008514;28;20254;-52
2021/03/19 04:21:39;;;;;;;25.15;22.55;;;34.20;74.90;;;;;;5022314;28;20250;-48
2021/03/19 04:24:10;;;;;;;23.40;21.13;;;34.20;74.80;;;;;;5022942;28;20215;-50
2021/03/19 04:26:40;;;;;;;21.40;19.38;;;34.20;74.70;;;;;;5022974;28;20195;-50
2021/03/19 04:29:10;;;;;;;23.08;20.92;;;34.20;74.80;;;;;;5020771;28;20683;-49
2021/03/19 04:31:41;;;;;;;20.48;18.77;;;34.30;74.80;;;;;;5020129;28;20210;-49
2021/03/19 04:34:14;;;;;;;23.45;21.38;;;34.30;75.00;;;;;;5020415;28;20191;-50
2021/03/19 04:36:46;;;;;;;24.13;21.80;;;34.30;74.10;;;;;;5022542;28;20199;-51
2021/03/19 04:39:17;;;;;;;24.40;21.95;;;34.30;73.50;;;;;;5023242;28;20357;-50
2021/03/19 04:41:48;;;;;;;23.17;21.15;;;34.30;73.30;;;;;;5010174;28;20192;-51
2021/03/19 04:44:19;;;;;;;22.25;20.23;;;34.30;73.70;;;;;;5022063;28;20215;-48
2021/03/19 04:46:49;;;;;;;23.80;21.60;;;34.40;74.00;;;;;;5017902;28;20290;-48
2021/03/19 04:49:22;;;;;;;24.83;22.42;;;34.40;74.30;;;;;;5029286;28;20308;-48
2021/03/19 04:51:52;;;;;;;20.58;18.70;;;34.50;72.40;;;;;;5065368;28;20245;-48
2021/03/19 04:54:23;;;;;;;22.15;20.15;;;34.40;73.20;;;;;;5063840;28;20574;-48
2021/03/19 04:56:54;;;;;;;22.90;20.83;;;34.50;73.30;;;;;;5064856;28;20201;-48
2021/03/19 04:59:24;;;;;;;23.40;21.15;;;34.50;73.00;;;;;;5057250;28;20698;-51
2021/03/19 05:01:55;;;;;;;23.20;21.15;;;34.60;72.90;;;;;;5060560;28;20196;-48
2021/03/19 05:04:27;;;;;;;22.73;20.48;;;34.50;72.20;;;;;;5063135;28;20266;-49
2021/03/19 05:07:00;;;;;;;22.45;20.30;;;34.50;72.30;;;;;;5054916;28;20212;-51
2021/03/19 05:09:31;;;;;;;22.52;20.45;;;34.50;72.10;;;;;;5049920;28;20456;-48
2021/03/19 05:12:01;;;;;;;23.92;21.75;;;34.50;71.70;;;;;;5061513;28;20569;-48
2021/03/19 05:14:32;;;;;;;23.77;21.50;;;34.50;71.70;;;;;;5064284;28;20210;-53
2021/03/19 05:17:02;;;;;;;23.95;21.77;;;34.50;72.20;;;;;;5050484;28;20232;-48
2021/03/19 05:19:34;;;;;;;24.20;21.70;;;34.50;72.30;;;;;;5065560;28;20216;-50
2021/03/19 05:22:05;;;;;;;22.27;20.27;;;34.50;71.20;;;;;;5057105;28;20194;-49
2021/03/19 05:24:36;;;;;;;22.75;20.52;;;34.50;71.70;;;;;;5063118;28;20231;-49
2021/03/19 05:27:07;;;;;;;23.00;20.83;;;34.50;71.80;;;;;;5063338;28;20923;-53
2021/03/19 05:29:38;;;;;;;22.67;20.70;;;34.50;71.40;;;;;;5064895;28;20190;-49
2021/03/19 05:32:08;;;;;;;22.50;20.45;;;34.60;71.50;;;;;;5058075;28;20226;-51
2021/03/19 05:34:40;;;;;;;23.13;21.23;;;34.60;71.40;;;;;;5062135;28;20284;-53
2021/03/19 05:37:10;;;;;;;23.05;20.95;;;34.60;71.00;;;;;;5062835;28;20535;-50
2021/03/19 05:39:41;;;;;;;23.77;21.42;;;34.60;70.80;;;;;;5055341;28;20234;-48
2021/03/19 05:42:17;;;;;;;20.95;19.13;;;34.70;70.80;;;;;;5056284;28;20856;-49
2021/03/19 05:44:50;;;;;;;21.52;19.65;;;34.70;70.60;;;;;;5065389;28;20854;-49
2021/03/19 05:47:20;;;;;;;20.20;18.20;;;34.80;71.50;;;;;;5021025;28;20220;-49
2021/03/19 05:49:55;;;;;;;24.85;22.45;;;34.80;71.10;;;;;;5021327;28;20443;-47
2021/03/19 05:52:27;;;;;;;22.92;20.80;;;34.90;70.30;;;;;;5019251;28;20293;-48
2021/03/19 05:54:58;;;;;;;21.45;19.35;;;35.00;70.80;;;;;;5009043;28;20212;-51
2021/03/19 05:57:29;;;;;;;23.50;21.35;;;35.00;70.50;;;;;;5007086;28;20203;-48
2021/03/19 06:00:00;;;;;;;22.92;20.83;;;35.00;70.10;;;;;;5007033;28;20243;-49
2021/03/19 06:02:31;;;;;;;20.77;18.77;;;35.10;70.20;;;;;;5014960;28;20218;-49
2021/03/19 06:05:09;;;;;;;21.83;19.95;;;35.10;70.80;;;;;;5022317;28;20203;-48
2021/03/19 06:07:45;;;;;;;21.65;19.75;;;35.10;70.60;;;;;;5018329;28;20309;-50
2021/03/19 06:10:21;;;;;;;22.45;20.42;;;35.20;69.60;;;;;;5020567;28;21039;-50
2021/03/19 06:12:51;;;;;;;23.17;20.90;;;35.30;68.70;;;;;;5051672;28;20229;-48
2021/03/19 06:15:27;;;;;;;23.10;20.98;;;35.30;69.10;;;;;;5055137;28;20617;-51
2021/03/19 06:17:58;;;;;;;22.48;20.35;;;35.30;69.10;;;;;;5006309;28;20659;-52
2021/03/19 06:20:30;;;;;;;22.98;20.95;;;35.30;69.40;;;;;;5006708;28;20211;-48
2021/03/19 06:23:02;;;;;;;23.33;20.98;;;35.30;69.50;;;;;;5007509;28;20203;-48
2021/03/19 06:25:39;;;;;;;23.15;21.02;;;35.30;69.30;;;;;;5007271;28;20318;-49
2021/03/19 06:28:24;;;;;;;31.73;28.48;;;35.30;69.50;;;;;;5009491;28;20196;-47
2021/03/19 06:30:55;;;;;;;25.52;23.23;;;35.30;69.50;;;;;;4954922;28;20210;-52
2021/03/19 06:33:27;;;;;;;22.48;20.27;;;35.20;69.80;;;;;;4911006;29;20231;-48
2021/03/19 06:36:18;;;;;;;23.08;21.10;;;35.20;69.80;;;;;;4911524;29;20211;-50
2021/03/19 06:38:49;;;;;;;22.15;20.15;;;35.20;69.70;;;;;;4910796;29;20210;-48
2021/03/19 06:41:37;;;;;;;19.15;17.42;;;35.20;69.70;;;;;;4912472;28;20577;-49
2021/03/19 06:44:19;;;;;;;21.00;19.10;;;35.20;70.20;;;;;;4968989;28;20259;-49
2021/03/19 06:46:51;;;;;;;21.83;19.83;;;35.20;69.10;;;;;;4967246;28;20208;-48
2021/03/19 06:49:22;;;;;;;22.13;20.13;;;35.20;69.70;;;;;;4968320;28;20235;-49
2021/03/19 06:51:54;;;;;;;24.67;22.30;;;35.20;69.30;;;;;;4968501;28;20656;-51
2021/03/19 06:54:26;;;;;;;23.70;21.65;;;35.20;69.40;;;;;;4975866;28;20791;-49
2021/03/19 06:57:06;;;;;;;22.02;19.85;;;35.20;69.20;;;;;;5027299;28;20655;-50
2021/03/19 06:59:43;;;;;;;20.50;18.65;;;35.20;69.10;;;;;;5026793;28;20284;-50
2021/03/19 07:02:48;;;;;;;21.83;19.92;;;35.20;69.30;;;;;;5027178;28;20194;-50
2021/03/19 07:05:56;;;;;;;20.45;18.55;;;35.30;68.70;;;;;;5040679;28;20216;-47
2021/03/19 07:08:36;;;;;;;22.88;20.77;;;35.20;69.30;;;;;;5024847;28;20487;-50
2021/03/19 07:11:36;;;;;;;22.55;20.27;;;35.30;69.30;;;;;;5049639;28;20216;-51
2021/03/19 07:14:23;;;;;;;22.75;20.73;;;35.30;69.10;;;;;;5053366;28;20224;-53
2021/03/19 07:16:56;;;;;;;22.23;20.10;;;35.30;68.80;;;;;;5062857;28;20197;-48
2021/03/19 07:19:27;;;;;;;21.90;19.80;;;35.30;68.80;;;;;;5054628;28;20256;-48
2021/03/19 07:22:11;;;;;;;22.02;20.02;;;35.30;69.10;;;;;;5066004;28;20729;-51
2021/03/19 07:25:04;;;;;;;22.65;20.75;;;35.30;68.90;;;;;;5043262;28;20202;-48
2021/03/19 07:27:55;;;;;;;24.77;22.38;;;35.40;68.90;;;;;;5044146;28;20642;-48
2021/03/19 07:30:29;;;;;;;23.05;20.98;;;35.40;68.20;;;;;;5031016;28;20207;-51
2021/03/19 07:33:26;;;;;;;23.20;20.77;;;35.40;68.70;;;;;;5034075;28;20243;-50
2021/03/19 07:36:02;;;;;;;22.75;20.60;;;35.40;68.40;;;;;;4983691;28;20886;-50
2021/03/19 07:39:04;;;;;;;23.30;20.80;;;35.50;68.70;;;;;;4928857;29;20206;-49
2021/03/19 07:41:42;;;;;;;21.63;19.52;;;35.50;68.50;;;;;;4929136;29;20214;-49
2021/03/19 07:44:22;;;;;;;22.92;20.80;;;35.50;69.10;;;;;;4927833;29;20587;-49
2021/03/19 07:46:58;;;;;;;23.10;21.10;;;35.60;68.40;;;;;;4927804;29;20293;-49
2021/03/19 07:49:56;;;;;;;21.08;19.02;;;35.50;68.60;;;;;;4942487;28;20205;-49
2021/03/19 07:52:55;;;;;;;22.77;20.70;;;35.60;68.30;;;;;;4964341;28;20238;-51
2021/03/19 07:55:28;;;;;;;22.15;19.95;;;35.60;68.10;;;;;;4950526;28;20217;-52
2021/03/19 07:58:02;;;;;;;23.40;21.33;;;35.60;68.20;;;;;;4950158;28;20213;-51
2021/03/19 08:00:34;;;;;;;22.85;20.58;;;35.60;68.00;;;;;;4949142;28;20305;-51
2021/03/19 08:03:11;;;;;;;23.58;21.27;;;35.60;68.40;;;;;;4969492;28;20300;-52
2021/03/19 08:05:45;;;;;;;21.17;19.17;;;35.60;68.60;;;;;;4984043;28;20578;-49
2021/03/19 08:08:17;;;;;;;18.77;17.20;;;35.60;69.00;;;;;;4983931;28;20195;-52
2021/03/19 08:11:05;;;;;;;19.15;17.65;;;35.70;69.20;;;;;;5042720;28;20226;-52
2021/03/19 08:13:44;;;;;;;19.92;18.15;;;35.80;69.20;;;;;;5042668;28;20259;-49
2021/03/19 08:16:18;;;;;;;21.33;19.42;;;35.90;68.80;;;;;;5035914;28;20206;-52
2021/03/19 08:18:51;;;;;;;18.27;16.67;;;36.10;68.50;;;;;;5039800;28;20197;-51
2021/03/19 08:21:32;;;;;;;19.75;17.98;;;36.10;68.20;;;;;;4982534;28;20215;-50
2021/03/19 08:24:09;;;;;;;18.38;16.77;;;36.30;68.10;;;;;;4984305;28;20307;-50
2021/03/19 08:26:48;;;;;;;19.20;17.40;;;36.40;67.60;;;;;;4984016;28;20208;-53
2021/03/19 08:29:27;;;;;;;23.30;21.17;;;36.50;67.40;;;;;;4969551;28;20203;-53
2021/03/19 08:32:01;;;;;;;22.65;20.48;;;36.60;65.60;;;;;;4995252;28;20246;-51
2021/03/19 08:34:38;;;;;;;23.23;21.02;;;36.60;65.00;;;;;;4949108;28;20220;-50
2021/03/19 08:37:18;;;;;;;24.80;22.63;;;36.60;64.60;;;;;;4949841;28;20239;-53
2021/03/19 08:39:49;;;;;;;25.75;23.45;;;36.60;63.90;;;;;;4927873;29;20214;-51
2021/03/19 08:42:20;;;;;;;19.10;17.52;;;36.60;64.00;;;;;;4927834;29;20226;-48
2021/03/19 08:44:52;;;;;;;20.40;18.60;;;36.50;65.10;;;;;;4890166;29;20215;-49
2021/03/19 08:47:26;;;;;;;22.40;20.48;;;36.60;65.20;;;;;;4890114;29;20302;-50
2021/03/19 08:49:57;;;;;;;21.55;19.65;;;36.60;64.70;;;;;;4889322;29;20625;-51
2021/03/19 08:52:34;;;;;;;19.52;17.83;;;36.70;64.60;;;;;;4918837;29;20233;-52
2021/03/19 08:55:26;;;;;;;20.23;18.48;;;36.70;64.70;;;;;;4947237;29;20794;-52
2021/03/19 08:57:57;;;;;;;19.92;18.17;;;36.80;63.90;;;;;;4947245;29;20291;-53
2021/03/19 09:00:57;;;;;;;20.98;18.98;;;36.80;64.60;;;;;;4946506;29;20272;-54
2021/03/19 09:03:58;;;;;;;19.90;18.00;;;36.90;64.50;;;;;;4947084;29;20905;-50
2021/03/19 09:06:34;;;;;;;19.13;17.40;;;37.00;65.40;;;;;;4998535;28;20314;-52
2021/03/19 09:09:37;;;;;;;20.30;18.60;;;37.10;64.30;;;;;;5010110;28;20213;-50
2021/03/19 09:12:13;;;;;;;18.90;17.30;;;37.20;63.80;;;;;;5064825;28;20212;-50
2021/03/19 09:14:46;;;;;;;19.25;17.63;;;37.30;63.60;;;;;;5050068;28;20271;-48
2021/03/19 09:17:41;;;;;;;20.67;18.98;;;37.40;63.30;;;;;;5056702;28;20199;-49
2021/03/19 09:20:14;;;;;;;20.65;18.83;;;37.50;62.00;;;;;;5065385;28;20197;-48
2021/03/19 09:22:47;;;;;;;19.95;18.13;;;37.60;61.50;;;;;;5051332;28;20197;-49
2021/03/19 09:25:49;;;;;;;19.85;18.15;;;37.70;61.40;;;;;;5050088;28;20570;-48
2021/03/19 09:28:54;;;;;;;19.40;17.58;;;37.80;61.80;;;;;;5049996;28;20197;-47
2021/03/19 09:31:45;;;;;;;18.25;16.55;;;37.90;61.70;;;;;;5041153;28;20241;-48
2021/03/19 09:34:25;;;;;;;19.30;17.60;;;38.00;61.20;;;;;;5049387;28;20194;-49
2021/03/19 09:37:03;;;;;;;19.83;18.13;;;38.00;60.50;;;;;;5062835;28;20205;-51
2021/03/19 09:39:54;;;;;;;19.27;17.63;;;38.00;60.50;;;;;;5064622;28;20241;-52
2021/03/19 09:42:49;;;;;;;20.35;18.55;;;38.00;60.80;;;;;;5065116;28;20529;-48
2021/03/19 09:45:33;;;;;;;19.25;17.45;;;38.10;60.20;;;;;;5050227;28;20604;-49
2021/03/19 09:48:34;;;;;;;19.77;17.75;;;38.10;60.40;;;;;;5056444;28;20279;-48
2021/03/19 09:51:36;;;;;;;19.15;17.45;;;38.10;60.20;;;;;;5064306;28;20221;-49
2021/03/19 09:54:31;;;;;;;18.35;16.73;;;38.10;60.20;;;;;;5055134;28;20278;-48
2021/03/19 09:57:06;;;;;;;18.85;17.15;;;38.10;60.20;;;;;;5064220;28;20255;-49
2021/03/19 09:59:38;;;;;;;18.67;17.17;;;38.10;59.70;;;;;;5062273;28;20318;-48
2021/03/19 10:02:24;;;;;;;18.70;17.20;;;38.10;59.90;;;;;;5064791;28;20286;-50
2021/03/19 10:04:55;;;;;;;17.80;16.20;;;38.00;60.00;;;;;;5060700;28;20213;-48
2021/03/19 10:07:26;;;;;;;19.67;17.73;;;38.00;60.00;;;;;;5053235;28;20198;-49
2021/03/19 10:09:58;;;;;;;19.02;17.42;;;38.00;59.80;;;;;;5067174;28;20923;-48
2021/03/19 10:12:31;;;;;;;19.45;17.42;;;38.00;59.60;;;;;;5065247;28;20210;-49
2021/03/19 10:15:12;;;;;;;18.50;16.77;;;38.00;59.70;;;;;;5053272;28;20198;-48
2021/03/19 10:17:43;;;;;;;18.67;16.98;;;38.00;59.90;;;;;;5053257;28;20189;-50
2021/03/19 10:20:24;;;;;;;17.42;16.02;;;37.90;59.70;;;;;;4971321;28;20270;-50
2021/03/19 10:22:54;;;;;;;19.58;17.88;;;37.90;59.80;;;;;;4971435;28;20212;-49
2021/03/19 10:25:32;;;;;;;17.65;16.25;;;37.90;59.80;;;;;;4971014;28;20960;-51
2021/03/19 10:28:08;;;;;;;17.65;15.90;;;37.90;61.20;;;;;;4985425;28;20247;-48
2021/03/19 10:30:42;;;;;;;18.92;17.23;;;37.90;61.00;;;;;;4971106;28;20304;-51
2021/03/19 10:33:15;;;;;;;17.23;15.88;;;38.00;61.90;;;;;;4970844;28;20948;-51
2021/03/19 10:35:48;;;;;;;17.58;16.08;;;38.10;60.40;;;;;;4971102;28;20287;-48
2021/03/19 10:38:24;;;;;;;17.05;15.65;;;38.20;60.10;;;;;;4971224;28;20465;-50
2021/03/19 10:40:59;;;;;;;17.63;16.02;;;38.30;59.90;;;;;;4985543;28;20268;-48
2021/03/19 10:43:35;;;;;;;17.27;15.80;;;38.40;59.60;;;;;;4979969;28;20644;-49
2021/03/19 10:46:09;;;;;;;18.60;16.02;;;38.50;59.40;;;;;;5056084;28;20213;-49
2021/03/19 10:48:43;;;;;;;17.48;15.93;;;38.50;58.90;;;;;;5066150;28;20208;-47
2021/03/19 10:51:32;;;;;;;18.70;17.08;;;38.50;58.90;;;;;;5066646;28;20343;-49
2021/03/19 10:54:06;;;;;;;18.20;16.65;;;38.40;58.70;;;;;;5068567;28;20224;-48
2021/03/19 10:56:44;;;;;;;17.65;16.15;;;38.40;58.80;;;;;;5067665;28;20244;-48
2021/03/19 10:59:18;;;;;;;17.13;15.57;;;38.40;58.80;;;;;;5052416;28;20680;-50
2021/03/19 11:01:49;;;;;;;16.83;15.52;;;38.30;58.90;;;;;;5059462;28;20204;-50
2021/03/19 11:04:32;;;;;;;16.95;15.48;;;38.20;59.00;;;;;;5068224;28;20189;-50
2021/03/19 11:07:18;;;;;;;16.77;15.25;;;38.20;59.10;;;;;;5053122;28;20210;-48
2021/03/19 11:10:06;;;;;;;15.93;14.48;;;38.10;59.30;;;;;;5062071;28;20272;-52
2021/03/19 11:12:39;;;;;;;16.92;15.20;;;37.90;59.20;;;;;;5051545;28;20218;-48
2021/03/19 11:15:12;;;;;;;17.10;15.57;;;37.80;59.30;;;;;;5066792;28;20572;-49
2021/03/19 11:17:42;;;;;;;16.60;15.00;;;37.70;59.30;;;;;;5052936;28;20194;-48
2021/03/19 11:20:23;;;;;;;16.80;15.35;;;37.50;59.40;;;;;;5058657;28;20205;-48
2021/03/19 11:22:53;;;;;;;17.00;15.40;;;37.30;59.50;;;;;;5056075;28;20205;-48
2021/03/19 11:25:44;;;;;;;16.95;15.55;;;37.20;59.80;;;;;;5052237;28;20209;-51
2021/03/19 11:28:31;;;;;;;17.63;15.93;;;36.90;60.40;;;;;;5067166;28;20292;-49
2021/03/19 11:31:25;;;;;;;17.20;15.68;;;36.70;60.80;;;;;;5067175;28;20205;-52
2021/03/19 11:34:02;;;;;;;16.38;14.95;;;36.50;61.20;;;;;;5050779;28;20312;-51
2021/03/19 11:36:53;;;;;;;17.30;15.70;;;36.30;61.60;;;;;;5057768;28;20193;-50
2021/03/19 11:39:36;;;;;;;16.08;14.68;;;36.20;62.40;;;;;;5066786;28;20205;-51
2021/03/19 11:42:07;;;;;;;16.58;15.10;;;36.00;63.00;;;;;;5065328;28;20666;-49
2021/03/19 11:44:39;;;;;;;17.08;15.48;;;35.80;63.10;;;;;;5066508;28;20210;-47
2021/03/19 11:47:19;;;;;;;18.42;16.73;;;35.70;63.90;;;;;;5067039;28;20229;-48
2021/03/19 11:49:51;;;;;;;18.08;16.40;;;35.50;64.40;;;;;;5066200;28;20194;-47
2021/03/19 11:52:21;;;;;;;17.83;16.08;;;35.40;64.70;;;;;;5064931;28;20559;-48
2021/03/19 11:54:52;;;;;;;18.02;16.30;;;35.30;65.10;;;;;;5066806;28;20216;-52
2021/03/19 11:57:22;;;;;;;18.08;16.48;;;35.10;65.50;;;;;;5066741;28;20203;-50
2021/03/19 11:59:53;;;;;;;17.20;15.60;;;35.00;65.80;;;;;;5066511;28;20241;-51
2021/03/19 12:02:37;;;;;;;16.98;15.35;;;35.00;66.40;;;;;;5064612;28;20194;-48
2021/03/19 12:05:11;;;;;;;17.23;15.77;;;34.80;67.10;;;;;;5064927;28;20697;-50
2021/03/19 12:07:41;;;;;;;17.27;15.77;;;34.80;67.20;;;;;;5057755;28;20209;-48
2021/03/19 12:10:12;;;;;;;17.85;16.13;;;34.70;67.60;;;;;;5061913;28;20205;-53
2021/03/19 12:12:43;;;;;;;18.05;16.45;;;34.60;67.90;;;;;;5064658;28;20660;-51
2021/03/19 12:15:16;;;;;;;16.88;15.23;;;34.50;68.00;;;;;;5064837;28;20194;-52
2021/03/19 12:17:47;;;;;;;17.77;16.17;;;34.50;68.60;;;;;;5063725;28;20201;-51
2021/03/19 12:20:17;;;;;;;17.45;15.85;;;34.40;68.70;;;;;;5066255;28;20240;-47
2021/03/19 12:22:48;;;;;;;15.32;13.98;;;34.40;68.90;;;;;;5064732;28;20206;-50
2021/03/19 12:25:20;;;;;;;16.90;15.40;;;34.30;69.10;;;;;;5050356;28;20264;-50
2021/03/19 12:27:51;;;;;;;16.75;15.25;;;34.30;69.60;;;;;;5017034;28;20210;-48
2021/03/19 12:30:23;;;;;;;18.35;16.75;;;34.20;69.70;;;;;;5025954;28;20288;-51
2021/03/19 12:32:54;;;;;;;17.85;16.20;;;34.20;70.10;;;;;;5025198;28;20757;-48
2021/03/19 12:35:25;;;;;;;19.00;17.08;;;34.10;70.20;;;;;;5024337;28;20577;-50
2021/03/19 12:37:57;;;;;;;19.48;17.58;;;34.10;70.40;;;;;;5025007;28;20222;-48
2021/03/19 12:40:29;;;;;;;17.75;16.10;;;34.00;70.60;;;;;;5025128;28;20203;-48
2021/03/19 12:42:59;;;;;;;18.13;16.50;;;34.00;70.90;;;;;;5024581;28;20199;-47
2021/03/19 12:45:32;;;;;;;17.55;15.95;;;34.00;71.10;;;;;;5024165;28;20206;-51
2021/03/19 12:48:03;;;;;;;17.98;16.30;;;33.90;71.50;;;;;;5025053;28;20242;-49
2021/03/19 12:50:33;;;;;;;18.58;16.80;;;33.90;71.50;;;;;;5022400;28;20219;-51
2021/03/19 12:53:04;;;;;;;17.25;15.65;;;33.80;71.60;;;;;;5024670;28;20230;-49
2021/03/19 12:55:35;;;;;;;17.98;16.48;;;33.80;71.90;;;;;;5024265;28;20202;-52
2021/03/19 12:58:05;;;;;;;18.00;15.95;;;33.70;71.90;;;;;;5031743;28;20247;-49
2021/03/19 13:00:37;;;;;;;18.58;16.17;;;33.70;72.10;;;;;;5063307;28;20800;-49
2021/03/19 13:03:08;;;;;;;19.10;17.20;;;33.70;72.60;;;;;;5065763;28;20197;-50
2021/03/19 13:05:39;;;;;;;17.42;15.93;;;33.70;72.70;;;;;;5064938;28;20719;-49
2021/03/19 13:08:10;;;;;;;18.67;16.85;;;33.70;72.90;;;;;;5063704;28;20197;-47
2021/03/19 13:10:40;;;;;;;17.88;16.27;;;33.60;73.00;;;;;;5065205;28;20296;-52
2021/03/19 13:13:11;;;;;;;17.73;15.90;;;33.60;73.20;;;;;;5065214;28;20233;-50
2021/03/19 13:15:44;;;;;;;17.75;16.23;;;33.60;73.40;;;;;;5065462;28;20206;-49